Fonda, North Dakota
Current Conditions -  °F | °C
As of 6:15 AM on Tuesday 27 Jan 2015 (Local Time) from KRUG Reporting Station
Clear Clear  
Wind Chill: 22°   Ceiling: Unl
Heat Index: 32°   Visibility: 10mi
Dew Point: 28°   Wind: 14mph
Humidity: 87%   Direction: 160°SSE
Pressure: 29.9"   Gusts: 20mph
Location:  48.632°N, 99.9505°W
Report Text: KRUG 271215Z AUTO 16012G17KT 10SM CLR 00/M02 A2990 RMK AO2
Loading
Personal Weather Stations






























Interactive Weather Map New forecast layout! Learn more

10-Day Weather Forecast

Advertisements
Track Severe Weather on mobile